Terminal Aerodrome Forecast
Issued by NWS

Home | Current Version | Previous Version | Text Only | Print | Product List | Glossary Off
Versions: 1 2 3 4 5 6 7 8 9 10 11 12 13 14 15 16 17 18 19 20 21 22

000
FTUS43 KABR 230811 AAA
TAFMBG
TAF AMD
KMBG 230811Z 2308/2406 11006KT P6SM BKN090
     FM231400 14009KT P6SM BKN040 BKN080
     FM231900 12010KT P6SM BKN030 OVC050
     FM240200 08008KT P6SM OVC015=

USA.gov is the U.S. government's official web portal to all federal, state and local government web resources and services.